LTCN

Kahramanmaraş Airport

Kahramanmaraş, Turkey
TAF LTCN 161640Z 1618/1703 29013KT 9999 FEW040 BECMG 1621/1623 CAVOK
Issued Valid From Valid To
Jul-16 @ 16:40 UTC
(4 hours ago)
Jul-16 @ 18:00 UTC
(2 hours ago)
Jul-17 @ 03:00 UTC
(in 7 hours)
Jul-16 @ 18:00 to Jul-16 @ 21:00
TAF LTCN 161640Z 1618/1703 29013KT 9999 FEW040
Wind Visibility Clouds
290° at 13 knots 10,000+ meters
  • Few at 4,000' AGL
Becoming Jul-16 @ 21:00 to Jul-17 @ 03:00
BECMG 1621/1623 CAVOK
Wind Visibility Clouds Conditions
290° at 13 knots 10,000+ meters
  • No significant clouds
TAF LTCN 161640Z 1618/1703 29013KT 9999 FEW040 BECMG 1621/1623 CAVOK
Issued Jul-16 @ 16:40 UTC
(4 hours ago)
Valid From Jul-16 @ 18:00 UTC
(2 hours ago)
Valid To Jul-17 @ 03:00 UTC
(in 7 hours)
Jul-16 @ 18:00 - Jul-16 @ 21:00
Wind Visibility
290° at 13 knots 10,000+ meters
Clouds
  • Few at 4,000' AGL
Becoming Jul-16 @ 21:00 - Jul-17 @ 03:00
Wind Visibility
290° at 13 knots 10,000+ meters
Clouds
  • No significant clouds
Conditions